sensor_id;sensor_type;location;lat;lon;timestamp;temperature;humidity
27759;DHT22;15148;48.972;12.794;2022-08-20T00:04:21;19.90;99.90
27759;DHT22;15148;48.972;12.794;2022-08-20T00:09:25;19.90;99.90
27759;DHT22;15148;48.972;12.794;2022-08-20T00:14:31;19.80;99.90
27759;DHT22;15148;48.972;12.794;2022-08-20T00:19:34;19.30;99.90
27759;DHT22;15148;48.972;12.794;2022-08-20T00:24:36;18.60;99.90
27759;DHT22;15148;48.972;12.794;2022-08-20T00:29:38;17.90;99.90
27759;DHT22;15148;48.972;12.794;2022-08-20T00:34:40;17.50;99.90
27759;DHT22;15148;48.972;12.794;2022-08-20T00:39:43;17.40;99.90
27759;DHT22;15148;48.972;12.794;2022-08-20T00:44:46;17.50;99.90
27759;DHT22;15148;48.972;12.794;2022-08-20T00:49:48;17.60;99.90
27759;DHT22;15148;48.972;12.794;2022-08-20T00:54:57;17.50;99.90
27759;DHT22;15148;48.972;12.794;2022-08-20T01:00:03;17.50;99.90
27759;DHT22;15148;48.972;12.794;2022-08-20T01:05:07;17.60;99.90
27759;DHT22;15148;48.972;12.794;2022-08-20T01:10:37;17.60;99.90
27759;DHT22;15148;48.972;12.794;2022-08-20T01:15:39;17.70;99.90
27759;DHT22;15148;48.972;12.794;2022-08-20T01:20:51;17.70;99.90
27759;DHT22;15148;48.972;12.794;2022-08-20T01:26:17;17.70;99.90
27759;DHT22;15148;48.972;12.794;2022-08-20T01:31:21;17.70;99.90
27759;DHT22;15148;48.972;12.794;2022-08-20T01:36:27;17.70;99.90
27759;DHT22;15148;48.972;12.794;2022-08-20T01:41:46;17.70;99.90
27759;DHT22;15148;48.972;12.794;2022-08-20T01:46:52;17.70;99.90
27759;DHT22;15148;48.972;12.794;2022-08-20T01:51:59;17.70;99.90
27759;DHT22;15148;48.972;12.794;2022-08-20T01:57:05;17.70;99.90
27759;DHT22;15148;48.972;12.794;2022-08-20T02:02:08;17.60;99.90
27759;DHT22;15148;48.972;12.794;2022-08-20T02:07:18;17.70;99.90
27759;DHT22;15148;48.972;12.794;2022-08-20T02:12:20;17.60;99.90
27759;DHT22;15148;48.972;12.794;2022-08-20T02:17:23;17.70;99.90
27759;DHT22;15148;48.972;12.794;2022-08-20T02:22:52;17.60;99.90
27759;DHT22;15148;48.972;12.794;2022-08-20T02:27:56;17.50;99.90
27759;DHT22;15148;48.972;12.794;2022-08-20T02:33:02;17.40;99.90
27759;DHT22;15148;48.972;12.794;2022-08-20T02:38:06;17.50;99.90
27759;DHT22;15148;48.972;12.794;2022-08-20T02:43:09;17.50;99.90
27759;DHT22;15148;48.972;12.794;2022-08-20T02:48:15;17.40;99.90
27759;DHT22;15148;48.972;12.794;2022-08-20T02:53:23;17.40;99.90
27759;DHT22;15148;48.972;12.794;2022-08-20T02:58:26;17.30;99.90
27759;DHT22;15148;48.972;12.794;2022-08-20T03:03:28;17.20;99.90
27759;DHT22;15148;48.972;12.794;2022-08-20T03:08:30;17.20;99.90
27759;DHT22;15148;48.972;12.794;2022-08-20T03:13:32;17.10;99.90
27759;DHT22;15148;48.972;12.794;2022-08-20T03:18:39;17.00;99.90
27759;DHT22;15148;48.972;12.794;2022-08-20T03:23:42;17.00;99.90
27759;DHT22;15148;48.972;12.794;2022-08-20T03:28:44;16.90;99.90
27759;DHT22;15148;48.972;12.794;2022-08-20T03:33:49;16.90;99.90
27759;DHT22;15148;48.972;12.794;2022-08-20T03:38:59;16.90;99.90
27759;DHT22;15148;48.972;12.794;2022-08-20T03:44:01;16.90;99.90
27759;DHT22;15148;48.972;12.794;2022-08-20T03:49:04;16.90;99.90
27759;DHT22;15148;48.972;12.794;2022-08-20T03:54:06;16.80;99.90
27759;DHT22;15148;48.972;12.794;2022-08-20T03:59:07;16.90;99.90
27759;DHT22;15148;48.972;12.794;2022-08-20T04:04:09;16.90;99.90
27759;DHT22;15148;48.972;12.794;2022-08-20T04:09:14;16.90;99.90
27759;DHT22;15148;48.972;12.794;2022-08-20T04:14:15;16.90;99.90
27759;DHT22;15148;48.972;12.794;2022-08-20T04:19:20;16.90;99.90
27759;DHT22;15148;48.972;12.794;2022-08-20T04:24:22;16.90;99.90
27759;DHT22;15148;48.972;12.794;2022-08-20T04:29:34;16.90;99.90
27759;DHT22;15148;48.972;12.794;2022-08-20T04:34:37;16.90;99.90
27759;DHT22;15148;48.972;12.794;2022-08-20T04:39:39;16.80;99.90
27759;DHT22;15148;48.972;12.794;2022-08-20T04:44:41;16.80;99.90
27759;DHT22;15148;48.972;12.794;2022-08-20T04:49:43;16.90;99.90
27759;DHT22;15148;48.972;12.794;2022-08-20T04:54:45;16.80;99.90
27759;DHT22;15148;48.972;12.794;2022-08-20T04:59:47;16.90;99.90
27759;DHT22;15148;48.972;12.794;2022-08-20T05:04:49;16.90;99.90
27759;DHT22;15148;48.972;12.794;2022-08-20T05:09:51;16.80;99.90
27759;DHT22;15148;48.972;12.794;2022-08-20T05:14:52;16.90;99.90
27759;DHT22;15148;48.972;12.794;2022-08-20T05:19:54;17.00;99.90
27759;DHT22;15148;48.972;12.794;2022-08-20T05:24:57;16.90;99.90
27759;DHT22;15148;48.972;12.794;2022-08-20T05:30:05;17.00;99.90
27759;DHT22;15148;48.972;12.794;2022-08-20T05:35:12;16.90;99.90
27759;DHT22;15148;48.972;12.794;2022-08-20T05:40:14;16.90;99.90
27759;DHT22;15148;48.972;12.794;2022-08-20T05:45:16;17.00;99.90
27759;DHT22;15148;48.972;12.794;2022-08-20T05:50:18;17.00;99.90
27759;DHT22;15148;48.972;12.794;2022-08-20T05:55:24;17.10;99.90
27759;DHT22;15148;48.972;12.794;2022-08-20T06:00:26;17.10;99.90
27759;DHT22;15148;48.972;12.794;2022-08-20T06:05:28;17.20;99.90
27759;DHT22;15148;48.972;12.794;2022-08-20T06:10:30;17.20;99.90
27759;DHT22;15148;48.972;12.794;2022-08-20T06:15:33;17.30;99.90
27759;DHT22;15148;48.972;12.794;2022-08-20T06:20:36;17.30;99.90
27759;DHT22;15148;48.972;12.794;2022-08-20T06:25:38;17.40;99.90
27759;DHT22;15148;48.972;12.794;2022-08-20T06:30:40;17.50;99.90
27759;DHT22;15148;48.972;12.794;2022-08-20T06:35:42;17.50;99.90
27759;DHT22;15148;48.972;12.794;2022-08-20T06:40:45;17.50;99.90
27759;DHT22;15148;48.972;12.794;2022-08-20T06:45:46;17.50;99.90
27759;DHT22;15148;48.972;12.794;2022-08-20T06:50:48;17.50;99.90
27759;DHT22;15148;48.972;12.794;2022-08-20T06:55:53;17.50;99.90
27759;DHT22;15148;48.972;12.794;2022-08-20T07:00:55;17.60;99.90
27759;DHT22;15148;48.972;12.794;2022-08-20T07:05:57;17.60;99.90
27759;DHT22;15148;48.972;12.794;2022-08-20T07:11:00;17.60;99.90
27759;DHT22;15148;48.972;12.794;2022-08-20T07:16:03;17.60;99.90
27759;DHT22;15148;48.972;12.794;2022-08-20T07:21:05;17.60;99.90
27759;DHT22;15148;48.972;12.794;2022-08-20T07:26:07;17.70;99.90
27759;DHT22;15148;48.972;12.794;2022-08-20T07:31:09;17.60;99.90
27759;DHT22;15148;48.972;12.794;2022-08-20T07:36:32;17.70;99.90
27759;DHT22;15148;48.972;12.794;2022-08-20T07:41:34;17.70;99.90
27759;DHT22;15148;48.972;12.794;2022-08-20T07:46:35;17.80;99.90
27759;DHT22;15148;48.972;12.794;2022-08-20T07:51:37;17.80;99.90
27759;DHT22;15148;48.972;12.794;2022-08-20T07:56:39;17.90;99.90
27759;DHT22;15148;48.972;12.794;2022-08-20T08:01:41;17.90;99.90
27759;DHT22;15148;48.972;12.794;2022-08-20T08:06:43;17.80;99.90
27759;DHT22;15148;48.972;12.794;2022-08-20T08:11:48;17.80;99.90
27759;DHT22;15148;48.972;12.794;2022-08-20T08:16:53;17.90;99.90
27759;DHT22;15148;48.972;12.794;2022-08-20T08:21:57;17.90;99.90
27759;DHT22;15148;48.972;12.794;2022-08-20T08:26:59;18.00;99.90
27759;DHT22;15148;48.972;12.794;2022-08-20T08:32:02;18.00;99.90
27759;DHT22;15148;48.972;12.794;2022-08-20T08:37:04;18.00;99.90
27759;DHT22;15148;48.972;12.794;2022-08-20T08:42:23;18.00;99.90
27759;DHT22;15148;48.972;12.794;2022-08-20T08:47:33;18.10;99.90
27759;DHT22;15148;48.972;12.794;2022-08-20T08:52:38;18.10;99.90
27759;DHT22;15148;48.972;12.794;2022-08-20T08:57:43;18.20;99.90
27759;DHT22;15148;48.972;12.794;2022-08-20T09:02:59;18.20;99.90
27759;DHT22;15148;48.972;12.794;2022-08-20T09:08:03;18.20;99.90
27759;DHT22;15148;48.972;12.794;2022-08-20T09:13:07;18.20;99.90
27759;DHT22;15148;48.972;12.794;2022-08-20T09:18:09;18.20;99.90
27759;DHT22;15148;48.972;12.794;2022-08-20T09:23:11;18.20;99.90
27759;DHT22;15148;48.972;12.794;2022-08-20T09:28:13;18.20;99.90
27759;DHT22;15148;48.972;12.794;2022-08-20T09:33:15;18.20;99.90
27759;DHT22;15148;48.972;12.794;2022-08-20T09:38:17;18.20;99.90
27759;DHT22;15148;48.972;12.794;2022-08-20T09:43:19;18.10;99.90
27759;DHT22;15148;48.972;12.794;2022-08-20T09:48:20;18.20;99.90
27759;DHT22;15148;48.972;12.794;2022-08-20T09:53:33;18.30;99.90
27759;DHT22;15148;48.972;12.794;2022-08-20T09:58:36;18.40;99.90
27759;DHT22;15148;48.972;12.794;2022-08-20T10:03:41;18.40;99.90
27759;DHT22;15148;48.972;12.794;2022-08-20T10:08:43;18.40;99.90
27759;DHT22;15148;48.972;12.794;2022-08-20T10:13:45;18.40;99.90
27759;DHT22;15148;48.972;12.794;2022-08-20T10:18:47;18.40;99.90
27759;DHT22;15148;48.972;12.794;2022-08-20T10:23:51;18.50;99.90
27759;DHT22;15148;48.972;12.794;2022-08-20T10:28:54;18.40;99.90
27759;DHT22;15148;48.972;12.794;2022-08-20T10:33:56;18.50;99.90
27759;DHT22;15148;48.972;12.794;2022-08-20T10:38:58;18.50;99.90
27759;DHT22;15148;48.972;12.794;2022-08-20T10:44:00;18.60;99.90
27759;DHT22;15148;48.972;12.794;2022-08-20T10:49:02;18.60;99.90
27759;DHT22;15148;48.972;12.794;2022-08-20T10:54:04;18.70;99.90
27759;DHT22;15148;48.972;12.794;2022-08-20T10:59:12;18.60;99.90
27759;DHT22;15148;48.972;12.794;2022-08-20T11:04:14;18.70;99.90
27759;DHT22;15148;48.972;12.794;2022-08-20T11:09:16;18.70;99.90
27759;DHT22;15148;48.972;12.794;2022-08-20T11:14:18;18.70;99.90
27759;DHT22;15148;48.972;12.794;2022-08-20T11:19:19;18.70;99.90
27759;DHT22;15148;48.972;12.794;2022-08-20T11:24:21;18.80;99.90
27759;DHT22;15148;48.972;12.794;2022-08-20T11:29:23;18.80;99.90
27759;DHT22;15148;48.972;12.794;2022-08-20T11:34:25;18.70;99.90
27759;DHT22;15148;48.972;12.794;2022-08-20T11:39:27;18.60;99.90
27759;DHT22;15148;48.972;12.794;2022-08-20T11:44:29;18.60;99.90
27759;DHT22;15148;48.972;12.794;2022-08-20T11:49:33;18.50;99.90
27759;DHT22;15148;48.972;12.794;2022-08-20T11:54:35;18.60;99.90
27759;DHT22;15148;48.972;12.794;2022-08-20T11:59:41;18.60;99.90
27759;DHT22;15148;48.972;12.794;2022-08-20T12:04:43;18.70;99.90
27759;DHT22;15148;48.972;12.794;2022-08-20T12:09:46;18.80;99.90
27759;DHT22;15148;48.972;12.794;2022-08-20T12:14:53;18.90;99.90
27759;DHT22;15148;48.972;12.794;2022-08-20T12:20:00;18.90;99.90
27759;DHT22;15148;48.972;12.794;2022-08-20T12:25:03;19.00;99.90
27759;DHT22;15148;48.972;12.794;2022-08-20T12:30:12;19.00;99.90
27759;DHT22;15148;48.972;12.794;2022-08-20T12:35:16;19.20;99.90
27759;DHT22;15148;48.972;12.794;2022-08-20T12:40:22;19.30;99.90
27759;DHT22;15148;48.972;12.794;2022-08-20T12:45:33;19.40;99.90
27759;DHT22;15148;48.972;12.794;2022-08-20T12:50:37;19.50;99.90
27759;DHT22;15148;48.972;12.794;2022-08-20T12:55:39;19.60;99.90
27759;DHT22;15148;48.972;12.794;2022-08-20T13:00:44;19.60;99.90
27759;DHT22;15148;48.972;12.794;2022-08-20T13:05:51;19.60;99.90
27759;DHT22;15148;48.972;12.794;2022-08-20T13:10:53;19.60;99.90
27759;DHT22;15148;48.972;12.794;2022-08-20T13:15:55;19.50;99.90
27759;DHT22;15148;48.972;12.794;2022-08-20T13:20:56;19.40;99.90
27759;DHT22;15148;48.972;12.794;2022-08-20T13:25:58;19.40;99.90
27759;DHT22;15148;48.972;12.794;2022-08-20T13:31:00;19.40;99.90
27759;DHT22;15148;48.972;12.794;2022-08-20T13:36:05;19.30;99.90
27759;DHT22;15148;48.972;12.794;2022-08-20T13:41:07;19.30;99.90
27759;DHT22;15148;48.972;12.794;2022-08-20T13:46:08;19.20;99.90
27759;DHT22;15148;48.972;12.794;2022-08-20T13:51:10;19.20;99.90
27759;DHT22;15148;48.972;12.794;2022-08-20T13:56:12;19.20;99.90
27759;DHT22;15148;48.972;12.794;2022-08-20T14:01:14;19.10;99.90
27759;DHT22;15148;48.972;12.794;2022-08-20T14:06:16;19.10;99.90
27759;DHT22;15148;48.972;12.794;2022-08-20T14:11:18;19.10;99.90
27759;DHT22;15148;48.972;12.794;2022-08-20T14:16:19;19.10;99.90
27759;DHT22;15148;48.972;12.794;2022-08-20T14:21:28;19.10;99.90
27759;DHT22;15148;48.972;12.794;2022-08-20T14:26:30;19.10;99.90
27759;DHT22;15148;48.972;12.794;2022-08-20T14:31:31;19.20;99.90
27759;DHT22;15148;48.972;12.794;2022-08-20T14:36:33;19.20;99.90
27759;DHT22;15148;48.972;12.794;2022-08-20T14:41:35;19.40;99.90
27759;DHT22;15148;48.972;12.794;2022-08-20T14:46:37;19.40;99.90
27759;DHT22;15148;48.972;12.794;2022-08-20T14:51:39;19.40;99.90
27759;DHT22;15148;48.972;12.794;2022-08-20T14:56:40;19.40;99.90
27759;DHT22;15148;48.972;12.794;2022-08-20T15:01:42;19.30;99.90
27759;DHT22;15148;48.972;12.794;2022-08-20T15:06:45;19.30;99.90
27759;DHT22;15148;48.972;12.794;2022-08-20T15:11:47;19.30;99.90
27759;DHT22;15148;48.972;12.794;2022-08-20T15:16:49;19.30;99.90
27759;DHT22;15148;48.972;12.794;2022-08-20T15:21:51;19.30;99.90
27759;DHT22;15148;48.972;12.794;2022-08-20T15:26:53;19.40;99.90
27759;DHT22;15148;48.972;12.794;2022-08-20T15:31:56;19.40;99.90
27759;DHT22;15148;48.972;12.794;2022-08-20T15:37:05;19.60;99.90
27759;DHT22;15148;48.972;12.794;2022-08-20T15:42:08;19.60;99.90
27759;DHT22;15148;48.972;12.794;2022-08-20T15:47:34;19.50;99.90
27759;DHT22;15148;48.972;12.794;2022-08-20T15:52:39;19.40;99.90
27759;DHT22;15148;48.972;12.794;2022-08-20T15:57:54;19.40;99.90
27759;DHT22;15148;48.972;12.794;2022-08-20T16:03:19;19.40;99.90
27759;DHT22;15148;48.972;12.794;2022-08-20T16:13:52;19.20;99.90
27759;DHT22;15148;48.972;12.794;2022-08-20T16:18:58;19.20;99.90
27759;DHT22;15148;48.972;12.794;2022-08-20T16:24:04;19.10;99.90
27759;DHT22;15148;48.972;12.794;2022-08-20T16:29:24;19.10;99.90
27759;DHT22;15148;48.972;12.794;2022-08-20T16:34:37;19.00;99.90
27759;DHT22;15148;48.972;12.794;2022-08-20T16:50:57;19.10;99.90
27759;DHT22;15148;48.972;12.794;2022-08-20T16:56:02;19.10;99.90
27759;DHT22;15148;48.972;12.794;2022-08-20T17:01:12;19.00;99.90
27759;DHT22;15148;48.972;12.794;2022-08-20T17:06:38;18.90;99.90
27759;DHT22;15148;48.972;12.794;2022-08-20T17:11:42;18.90;99.90
27759;DHT22;15148;48.972;12.794;2022-08-20T17:16:49;18.90;99.90
27759;DHT22;15148;48.972;12.794;2022-08-20T17:21:52;18.90;99.90
27759;DHT22;15148;48.972;12.794;2022-08-20T17:27:00;18.80;99.90
27759;DHT22;15148;48.972;12.794;2022-08-20T17:32:24;18.80;99.90
27759;DHT22;15148;48.972;12.794;2022-08-20T17:37:36;18.70;99.90
27759;DHT22;15148;48.972;12.794;2022-08-20T17:42:57;18.50;99.90
27759;DHT22;15148;48.972;12.794;2022-08-20T17:48:04;18.50;99.90
27759;DHT22;15148;48.972;12.794;2022-08-20T17:58:34;18.60;99.90
27759;DHT22;15148;48.972;12.794;2022-08-20T18:03:38;18.60;99.90
27759;DHT22;15148;48.972;12.794;2022-08-20T18:08:55;18.60;99.90
27759;DHT22;15148;48.972;12.794;2022-08-20T18:19:14;18.60;99.90
27759;DHT22;15148;48.972;12.794;2022-08-20T18:24:48;18.50;99.90
27759;DHT22;15148;48.972;12.794;2022-08-20T18:29:48;18.50;99.90
27759;DHT22;15148;48.972;12.794;2022-08-20T18:34:52;18.30;99.90
27759;DHT22;15148;48.972;12.794;2022-08-20T18:40:16;18.30;99.90
27759;DHT22;15148;48.972;12.794;2022-08-20T18:45:31;18.30;99.90
27759;DHT22;15148;48.972;12.794;2022-08-20T18:50:45;18.30;99.90
27759;DHT22;15148;48.972;12.794;2022-08-20T18:56:07;18.30;99.90
27759;DHT22;15148;48.972;12.794;2022-08-20T19:01:11;18.20;99.90
27759;DHT22;15148;48.972;12.794;2022-08-20T19:06:28;18.20;99.90
27759;DHT22;15148;48.972;12.794;2022-08-20T19:16:58;18.10;99.90
27759;DHT22;15148;48.972;12.794;2022-08-20T19:22:02;18.00;99.90
27759;DHT22;15148;48.972;12.794;2022-08-20T19:27:07;18.00;99.90
27759;DHT22;15148;48.972;12.794;2022-08-20T19:32:17;18.00;99.90
27759;DHT22;15148;48.972;12.794;2022-08-20T19:37:24;17.90;99.90
27759;DHT22;15148;48.972;12.794;2022-08-20T19:42:41;17.80;99.90
27759;DHT22;15148;48.972;12.794;2022-08-20T19:48:01;17.80;99.90
27759;DHT22;15148;48.972;12.794;2022-08-20T19:58:17;17.70;99.90
27759;DHT22;15148;48.972;12.794;2022-08-20T20:03:30;17.80;99.90
27759;DHT22;15148;48.972;12.794;2022-08-20T20:08:40;17.80;99.90
27759;DHT22;15148;48.972;12.794;2022-08-20T20:13:43;17.80;99.90
27759;DHT22;15148;48.972;12.794;2022-08-20T20:18:44;17.70;99.90
27759;DHT22;15148;48.972;12.794;2022-08-20T20:24:05;17.80;99.90
27759;DHT22;15148;48.972;12.794;2022-08-20T20:29:12;17.70;99.90
27759;DHT22;15148;48.972;12.794;2022-08-20T20:34:34;17.70;99.90
27759;DHT22;15148;48.972;12.794;2022-08-20T20:39:40;17.70;99.90
27759;DHT22;15148;48.972;12.794;2022-08-20T20:44:43;17.70;99.90
27759;DHT22;15148;48.972;12.794;2022-08-20T20:49:51;17.70;99.90
27759;DHT22;15148;48.972;12.794;2022-08-20T20:55:11;17.70;99.90
27759;DHT22;15148;48.972;12.794;2022-08-20T21:00:16;17.70;99.90
27759;DHT22;15148;48.972;12.794;2022-08-20T21:05:22;17.70;99.90
27759;DHT22;15148;48.972;12.794;2022-08-20T21:10:29;17.70;99.90
27759;DHT22;15148;48.972;12.794;2022-08-20T21:15:34;17.60;99.90
27759;DHT22;15148;48.972;12.794;2022-08-20T21:20:36;17.70;99.90
27759;DHT22;15148;48.972;12.794;2022-08-20T21:25:39;17.60;99.90
27759;DHT22;15148;48.972;12.794;2022-08-20T21:30:41;17.60;99.90
27759;DHT22;15148;48.972;12.794;2022-08-20T21:35:43;17.60;99.90
27759;DHT22;15148;48.972;12.794;2022-08-20T21:40:45;17.50;99.90
27759;DHT22;15148;48.972;12.794;2022-08-20T21:45:46;17.50;99.90
27759;DHT22;15148;48.972;12.794;2022-08-20T21:50:50;17.60;99.90
27759;DHT22;15148;48.972;12.794;2022-08-20T21:55:52;17.60;99.90
27759;DHT22;15148;48.972;12.794;2022-08-20T22:00:58;17.60;99.90
27759;DHT22;15148;48.972;12.794;2022-08-20T22:06:03;17.60;99.90
27759;DHT22;15148;48.972;12.794;2022-08-20T22:11:07;17.60;99.90
27759;DHT22;15148;48.972;12.794;2022-08-20T22:16:13;17.60;99.90
27759;DHT22;15148;48.972;12.794;2022-08-20T22:21:23;17.60;99.90
27759;DHT22;15148;48.972;12.794;2022-08-20T22:26:26;17.60;99.90
27759;DHT22;15148;48.972;12.794;2022-08-20T22:31:30;17.60;99.90
27759;DHT22;15148;48.972;12.794;2022-08-20T22:36:33;17.60;99.90
27759;DHT22;15148;48.972;12.794;2022-08-20T22:41:35;17.60;99.90
27759;DHT22;15148;48.972;12.794;2022-08-20T22:46:39;17.50;99.90
27759;DHT22;15148;48.972;12.794;2022-08-20T22:51:49;17.50;99.90
27759;DHT22;15148;48.972;12.794;2022-08-20T22:56:54;17.50;99.90
27759;DHT22;15148;48.972;12.794;2022-08-20T23:01:56;17.50;99.90
27759;DHT22;15148;48.972;12.794;2022-08-20T23:06:59;17.50;99.90
27759;DHT22;15148;48.972;12.794;2022-08-20T23:12:01;17.40;99.90
27759;DHT22;15148;48.972;12.794;2022-08-20T23:17:07;17.40;99.90
27759;DHT22;15148;48.972;12.794;2022-08-20T23:22:14;17.40;99.90
27759;DHT22;15148;48.972;12.794;2022-08-20T23:27:18;17.40;99.90
27759;DHT22;15148;48.972;12.794;2022-08-20T23:32:21;17.40;99.90
27759;DHT22;15148;48.972;12.794;2022-08-20T23:37:23;17.40;99.90
27759;DHT22;15148;48.972;12.794;2022-08-20T23:42:24;17.30;99.90
27759;DHT22;15148;48.972;12.794;2022-08-20T23:47:27;17.30;99.90
27759;DHT22;15148;48.972;12.794;2022-08-20T23:52:29;17.30;99.90
27759;DHT22;15148;48.972;12.794;2022-08-20T23:57:31;17.30;99.90
